createdAt,value
2023-03-28T00:00:24.240Z,25.47
2023-03-28T00:01:24.247Z,25.47
2023-03-28T00:02:24.259Z,25.48
2023-03-28T00:03:24.344Z,25.48
2023-03-28T00:04:24.403Z,25.48
2023-03-28T00:05:24.408Z,25.48
2023-03-28T00:06:24.444Z,25.50
2023-03-28T00:07:24.457Z,25.47
2023-03-28T00:08:24.477Z,25.47
2023-03-28T00:09:24.492Z,25.45
2023-03-28T00:10:24.541Z,25.48
2023-03-28T00:11:24.538Z,25.47
2023-03-28T00:12:24.568Z,25.47
2023-03-28T00:13:24.613Z,25.45
2023-03-28T00:14:24.668Z,25.45
2023-03-28T00:15:24.657Z,25.44
2023-03-28T00:16:24.774Z,25.47
2023-03-28T00:17:24.743Z,25.47
2023-03-28T00:18:24.762Z,25.47
2023-03-28T00:19:24.782Z,25.45
2023-03-28T00:20:24.797Z,25.45
2023-03-28T00:21:24.842Z,25.47
2023-03-28T00:22:24.889Z,25.45
2023-03-28T00:23:24.901Z,25.47
2023-03-28T00:24:24.934Z,25.47
2023-03-28T00:25:25.008Z,25.47
2023-03-28T00:26:25.092Z,25.45
2023-03-28T00:27:25.011Z,25.44
2023-03-28T00:28:25.047Z,25.44
2023-03-28T00:29:25.086Z,25.47
2023-03-28T00:30:25.136Z,25.45
2023-03-28T00:31:25.217Z,25.44
2023-03-28T00:32:25.251Z,25.43
2023-03-28T00:33:25.224Z,25.45
2023-03-28T00:34:25.245Z,25.47
2023-03-28T00:35:25.350Z,25.45
2023-03-28T00:36:25.336Z,25.45
2023-03-28T00:37:25.397Z,25.45
2023-03-28T00:51:25.790Z,25.43
2023-03-28T00:52:25.846Z,25.44
2023-03-28T00:53:25.830Z,25.44
2023-03-28T00:54:25.901Z,25.43
2023-03-28T00:55:25.897Z,25.44
2023-03-28T00:56:25.944Z,25.43
2023-03-28T00:57:25.971Z,25.44
2023-03-28T00:58:25.996Z,25.41
2023-03-28T00:59:26.024Z,25.45
2023-03-28T01:00:26.059Z,25.47
2023-03-28T01:01:26.125Z,25.43
2023-03-28T01:02:26.198Z,25.45
2023-03-28T01:03:26.223Z,25.44
2023-03-28T01:04:26.203Z,25.44
2023-03-28T01:05:26.244Z,25.41
2023-03-28T01:09:26.321Z,25.44
2023-03-28T01:10:26.395Z,25.44
2023-03-28T01:11:26.403Z,25.43
2023-03-28T01:12:26.403Z,25.44
2023-03-28T01:13:26.438Z,25.45
2023-03-28T01:14:26.486Z,25.44
2023-03-28T01:15:26.520Z,25.43
2023-03-28T01:16:26.566Z,25.45
2023-03-28T01:17:26.579Z,25.43
2023-03-28T01:18:26.614Z,25.41
2023-03-28T01:19:26.680Z,25.44
2023-03-28T01:20:26.699Z,25.41
2023-03-28T01:21:26.684Z,25.44
2023-03-28T01:22:26.769Z,25.41
2023-03-28T01:23:26.770Z,25.43
2023-03-28T01:24:26.769Z,25.41
2023-03-28T01:25:26.830Z,25.43
2023-03-28T01:26:26.884Z,25.41
2023-03-28T01:27:26.908Z,25.41
2023-03-28T01:28:26.921Z,25.41
2023-03-28T01:29:26.967Z,25.41
2023-03-28T01:30:27.001Z,25.44
2023-03-28T01:31:27.114Z,25.43
2023-03-28T01:32:27.085Z,25.43
2023-03-28T01:33:27.086Z,25.44
2023-03-28T01:34:27.133Z,25.41
2023-03-28T01:35:27.220Z,25.43
2023-03-28T01:36:35.341Z,25.45
2023-03-28T01:37:28.190Z,25.41
2023-03-28T01:38:27.248Z,25.43
2023-03-28T01:39:27.204Z,25.41
2023-03-28T01:40:27.226Z,25.40
2023-03-28T01:41:27.261Z,25.41
2023-03-28T01:44:27.286Z,25.43
2023-03-28T01:48:27.349Z,25.43
2023-03-28T01:49:27.337Z,25.40
2023-03-28T01:50:27.359Z,25.41
2023-03-28T01:51:27.383Z,25.41
2023-03-28T01:52:27.388Z,25.41
2023-03-28T02:05:27.714Z,25.40
2023-03-28T02:06:27.757Z,25.38
2023-03-28T02:07:27.781Z,25.37
2023-03-28T02:08:27.873Z,25.38
2023-03-28T02:09:27.855Z,25.40
2023-03-28T02:10:27.883Z,25.37
2023-03-28T02:11:27.926Z,25.40
2023-03-28T02:12:27.926Z,25.37
2023-03-28T02:13:27.974Z,25.41
2023-03-28T02:14:28.049Z,25.40
2023-03-28T02:15:28.077Z,25.40
2023-03-28T02:16:28.109Z,25.38
2023-03-28T02:17:28.191Z,25.40
2023-03-28T02:18:28.186Z,25.37
2023-03-28T02:19:28.220Z,25.38
2023-03-28T02:20:28.892Z,25.37
2023-03-28T02:26:28.496Z,25.38
2023-03-28T02:27:28.495Z,25.36
2023-03-28T02:28:28.542Z,25.34
2023-03-28T02:29:28.608Z,25.37
2023-03-28T02:30:28.658Z,25.38
2023-03-28T02:31:28.731Z,25.37
2023-03-28T02:32:28.734Z,25.37
2023-03-28T02:33:28.745Z,25.38
2023-03-28T02:34:28.791Z,25.37
2023-03-28T02:35:28.885Z,25.36
2023-03-28T02:36:28.853Z,25.38
2023-03-28T02:37:28.891Z,25.36
2023-03-28T02:38:28.940Z,25.34
2023-03-28T02:39:28.986Z,25.34
2023-03-28T02:40:29.035Z,25.37
2023-03-28T02:41:29.043Z,25.37
2023-03-28T02:42:29.100Z,25.36
2023-03-28T02:43:29.144Z,25.37
2023-03-28T02:44:29.173Z,25.38
2023-03-28T02:45:29.233Z,25.36
2023-03-28T02:46:29.353Z,25.36
2023-03-28T02:49:35.082Z,25.37
2023-03-28T02:50:30.379Z,25.36
2023-03-28T02:57:29.551Z,25.36
2023-03-28T03:00:29.573Z,25.36
2023-03-28T03:01:29.619Z,25.37
2023-03-28T03:04:29.580Z,25.37
2023-03-28T03:05:29.590Z,25.36
2023-03-28T03:06:29.598Z,25.37
2023-03-28T03:07:29.605Z,25.37
2023-03-28T03:08:29.649Z,25.36
2023-03-28T03:09:29.657Z,25.36
2023-03-28T03:10:29.675Z,25.36
2023-03-28T03:11:29.721Z,25.38
2023-03-28T03:12:29.721Z,25.36
2023-03-28T03:13:29.742Z,25.34
2023-03-28T03:14:29.758Z,25.37
2023-03-28T03:15:29.793Z,25.37
2023-03-28T03:16:29.909Z,25.38
2023-03-28T03:17:29.889Z,25.37
2023-03-28T03:24:30.135Z,25.36
2023-03-28T03:25:30.173Z,25.36
2023-03-28T03:26:30.208Z,25.34
2023-03-28T03:27:30.216Z,25.34
2023-03-28T03:28:30.266Z,25.34
2023-03-28T03:29:39.027Z,25.36
2023-03-28T03:30:31.297Z,25.36
2023-03-28T03:31:30.328Z,25.34
2023-03-28T03:32:30.360Z,25.36
2023-03-28T03:33:32.385Z,25.33
2023-03-28T03:37:30.382Z,25.34
2023-03-28T03:38:30.411Z,25.33
2023-03-28T03:39:30.486Z,25.34
2023-03-28T03:40:30.494Z,25.34
2023-03-28T03:41:30.522Z,25.33
2023-03-28T03:42:30.555Z,25.34
2023-03-28T03:43:30.625Z,25.34
2023-03-28T03:44:30.619Z,25.36
2023-03-28T03:45:30.663Z,25.36
2023-03-28T03:46:30.780Z,25.36
2023-03-28T03:47:30.867Z,25.34
2023-03-28T03:48:30.813Z,25.36
2023-03-28T03:49:30.825Z,25.36
2023-03-28T03:50:30.862Z,25.34
2023-03-28T03:51:30.931Z,25.34
2023-03-28T03:52:30.973Z,25.33
2023-03-28T03:53:30.993Z,25.37
2023-03-28T03:54:31.071Z,25.36
2023-03-28T03:55:31.117Z,25.36
2023-03-28T03:56:31.129Z,25.37
2023-03-28T03:57:31.182Z,25.34
2023-03-28T03:58:31.228Z,25.36
2023-03-28T03:59:31.283Z,25.37
2023-03-28T04:00:31.296Z,25.37
2023-03-28T04:01:31.333Z,25.34
2023-03-28T04:02:31.511Z,25.33
2023-03-28T04:03:31.393Z,25.33
2023-03-28T04:04:31.483Z,25.34
2023-03-28T04:05:31.479Z,25.36
2023-03-28T04:07:31.553Z,25.37
2023-03-28T04:08:31.581Z,25.34
2023-03-28T04:09:31.632Z,25.34
2023-03-28T04:10:31.696Z,25.36
2023-03-28T04:11:31.693Z,25.34
2023-03-28T04:12:31.696Z,25.36
2023-03-28T04:13:31.821Z,25.33
2023-03-28T04:14:31.804Z,25.36
2023-03-28T04:15:31.862Z,25.34
2023-03-28T04:16:40.375Z,25.32
2023-03-28T04:17:32.936Z,25.34
2023-03-28T04:18:31.919Z,25.36
2023-03-28T04:19:31.949Z,25.33
2023-03-28T04:24:31.965Z,25.34
2023-03-28T04:25:31.990Z,25.38
2023-03-28T04:26:32.007Z,25.41
2023-03-28T04:27:32.043Z,25.41
2023-03-28T04:30:32.055Z,25.45
2023-03-28T04:31:32.135Z,25.48
2023-03-28T04:40:32.175Z,25.64
2023-03-28T04:41:32.337Z,25.65
2023-03-28T04:42:32.248Z,25.67
2023-03-28T04:43:32.281Z,25.70
2023-03-28T04:44:32.508Z,25.68
2023-03-28T04:45:32.930Z,25.70
2023-03-28T04:48:32.480Z,25.73
2023-03-28T04:49:32.569Z,25.75
2023-03-28T04:50:35.134Z,25.74
2023-03-28T04:51:32.596Z,25.77
2023-03-28T04:52:32.589Z,25.77
2023-03-28T04:53:32.627Z,25.77
2023-03-28T04:57:32.675Z,25.80
2023-03-28T05:00:32.664Z,25.81
2023-03-28T05:01:39.914Z,25.81
2023-03-28T05:03:32.782Z,25.82
2023-03-28T05:04:32.731Z,25.81
2023-03-28T05:05:32.753Z,25.84
2023-03-28T05:06:32.754Z,25.81
2023-03-28T05:08:32.762Z,25.84
2023-03-28T05:09:32.774Z,25.85
2023-03-28T05:12:32.793Z,25.85
2023-03-28T05:15:32.811Z,25.91
2023-03-28T05:16:32.878Z,25.92
2023-03-28T05:17:32.820Z,25.91
2023-03-28T05:18:32.807Z,25.94
2023-03-28T05:19:32.834Z,25.95
2023-03-28T05:23:32.854Z,25.96
2023-03-28T05:24:34.560Z,25.98
2023-03-28T05:25:32.872Z,25.99
2023-03-28T05:29:32.881Z,26.05
2023-03-28T05:32:32.915Z,26.04
2023-03-28T05:33:32.905Z,25.99
2023-03-28T05:35:32.929Z,25.92
2023-03-28T05:36:32.924Z,25.91
2023-03-28T05:37:33.399Z,25.88
2023-03-28T05:40:32.941Z,25.71
2023-03-28T05:41:33.421Z,25.67
2023-03-28T05:43:32.984Z,25.53
2023-03-28T05:44:33.031Z,25.48
2023-03-28T05:45:40.094Z,25.44
2023-03-28T05:46:33.041Z,25.44
2023-03-28T05:47:33.066Z,25.44
2023-03-28T05:48:33.051Z,25.51
2023-03-28T05:49:33.062Z,25.57
2023-03-28T05:50:33.075Z,25.61
2023-03-28T05:51:33.086Z,25.70
2023-03-28T05:52:33.463Z,25.75
2023-03-28T05:54:33.083Z,25.88
2023-03-28T05:55:35.076Z,25.95
2023-03-28T05:56:33.319Z,26.01
2023-03-28T05:57:33.460Z,26.04
2023-03-28T06:00:33.457Z,26.09
2023-03-28T06:01:33.564Z,26.12
2023-03-28T06:02:33.615Z,26.15
2023-03-28T06:03:33.639Z,26.16
2023-03-28T06:04:33.692Z,26.16
2023-03-28T06:05:33.658Z,26.16
2023-03-28T06:06:33.701Z,26.21
2023-03-28T06:07:42.087Z,26.19
2023-03-28T06:08:34.724Z,26.21
2023-03-28T06:10:33.677Z,26.25
2023-03-28T06:14:33.695Z,26.28
2023-03-28T06:15:33.687Z,26.32
2023-03-28T06:18:33.724Z,26.33
2023-03-28T06:19:33.750Z,26.33
2023-03-28T06:23:33.703Z,26.38
2023-03-28T06:24:33.706Z,26.42
2023-03-28T06:25:33.710Z,26.45
2023-03-28T06:29:33.662Z,26.47
2023-03-28T06:31:33.757Z,26.50
2023-03-28T06:32:33.975Z,26.52
2023-03-28T06:34:33.740Z,26.50
2023-03-28T06:35:33.802Z,26.53
2023-03-28T06:36:33.751Z,26.53
2023-03-28T06:37:33.975Z,26.57
2023-03-28T06:39:33.824Z,26.33
2023-03-28T06:40:33.872Z,26.16
2023-03-28T06:41:33.931Z,26.02
2023-03-28T06:50:34.298Z,26.22
2023-03-28T06:51:34.328Z,26.25
2023-03-28T06:52:34.381Z,26.33
2023-03-28T06:53:34.415Z,26.36
2023-03-28T06:54:34.467Z,26.42
2023-03-28T06:55:34.508Z,26.47
2023-03-28T06:56:34.538Z,26.49
2023-03-28T06:57:34.617Z,26.50
2023-03-28T06:58:34.607Z,26.52
2023-03-28T06:59:34.637Z,26.56
2023-03-28T07:00:34.667Z,26.59
2023-03-28T07:01:34.747Z,26.66
2023-03-28T07:02:35.043Z,26.64
2023-03-28T07:03:34.759Z,26.67
2023-03-28T07:04:34.759Z,26.67
2023-03-28T07:05:34.798Z,26.70
2023-03-28T07:06:34.855Z,26.69
2023-03-28T07:07:34.889Z,26.67
2023-03-28T07:08:34.940Z,26.70
2023-03-28T07:09:34.933Z,26.76
2023-03-28T07:10:34.965Z,26.79
2023-03-28T07:11:35.062Z,26.82
2023-03-28T07:12:35.091Z,26.77
2023-03-28T07:13:35.095Z,26.82
2023-03-28T07:14:35.144Z,26.84
2023-03-28T07:15:35.188Z,26.86
2023-03-28T07:29:35.391Z,26.89
2023-03-28T07:30:35.388Z,26.93
2023-03-28T07:31:35.422Z,26.93
2023-03-28T07:32:47.160Z,26.93
2023-03-28T07:33:37.709Z,26.93
2023-03-28T07:35:35.691Z,26.87
2023-03-28T07:36:35.700Z,26.62
2023-03-28T07:37:35.976Z,26.32
2023-03-28T07:39:35.826Z,25.63
2023-03-28T07:40:35.869Z,25.27
2023-03-28T07:41:35.956Z,24.83
2023-03-28T07:42:36.535Z,24.55
2023-03-28T07:46:36.255Z,24.18
2023-03-28T07:47:36.317Z,24.24
2023-03-28T07:48:36.513Z,24.35
2023-03-28T07:51:36.360Z,24.73
2023-03-28T07:52:36.371Z,24.89
2023-03-28T07:57:36.418Z,25.32
2023-03-28T07:58:36.529Z,25.34
2023-03-28T07:59:36.508Z,25.30
2023-03-28T08:00:36.468Z,25.24
2023-03-28T08:01:36.466Z,25.02
2023-03-28T08:02:36.563Z,24.82
2023-03-28T08:03:36.664Z,24.76
2023-03-28T08:04:36.708Z,24.75
2023-03-28T08:05:36.960Z,24.79
2023-03-28T08:08:36.942Z,24.96
2023-03-28T08:09:37.205Z,25.06
2023-03-28T08:10:37.015Z,25.13
2023-03-28T08:11:37.104Z,25.23
2023-03-28T08:12:37.155Z,25.36
2023-03-28T08:13:37.212Z,25.45
2023-03-28T08:14:37.197Z,25.54
2023-03-28T08:15:37.290Z,25.64
2023-03-28T08:16:37.274Z,25.73
2023-03-28T08:17:37.368Z,25.81
2023-03-28T08:18:37.471Z,25.88
2023-03-28T08:20:37.544Z,26.01
2023-03-28T08:21:37.586Z,26.06
2023-03-28T08:23:37.618Z,26.18
2023-03-28T08:24:37.705Z,26.23
2023-03-28T08:25:37.695Z,26.26
2023-03-28T08:26:37.739Z,26.31
2023-03-28T08:27:37.790Z,26.36
2023-03-28T08:28:37.824Z,26.39
2023-03-28T08:29:37.831Z,26.43
2023-03-28T08:30:37.869Z,26.47
2023-03-28T08:31:38.053Z,26.50
2023-03-28T08:32:38.014Z,26.52
2023-03-28T08:33:37.976Z,26.46
2023-03-28T08:34:38.077Z,26.47
2023-03-28T08:35:38.093Z,26.43
2023-03-28T08:36:38.102Z,26.40
2023-03-28T08:37:38.157Z,26.36
2023-03-28T08:38:38.276Z,26.36
2023-03-28T08:39:38.312Z,26.35
2023-03-28T08:40:38.369Z,26.33
2023-03-28T08:41:38.420Z,26.35
2023-03-28T08:42:38.476Z,26.40
2023-03-28T08:43:38.544Z,26.38
2023-03-28T08:44:38.591Z,26.43
2023-03-28T08:45:38.630Z,26.42
2023-03-28T08:46:38.777Z,26.43
2023-03-28T08:47:38.758Z,26.43
2023-03-28T08:48:39.020Z,26.40
2023-03-28T08:55:39.188Z,26.22
2023-03-28T08:56:41.137Z,26.19
2023-03-28T09:02:39.672Z,26.45
2023-03-28T09:03:39.772Z,26.43
2023-03-28T09:04:39.707Z,26.40
2023-03-28T09:05:39.778Z,26.33
2023-03-28T09:06:39.805Z,26.19
2023-03-28T09:07:39.871Z,26.05
2023-03-28T09:08:39.914Z,25.92
2023-03-28T09:09:39.948Z,25.77
2023-03-28T09:10:40.958Z,25.73
2023-03-28T09:11:40.072Z,25.73
2023-03-28T09:12:40.124Z,25.71
2023-03-28T09:13:40.181Z,25.80
2023-03-28T09:14:40.152Z,25.85
2023-03-28T09:15:40.230Z,25.91
2023-03-28T09:16:40.270Z,25.99
2023-03-28T09:17:40.333Z,26.06
2023-03-28T09:18:40.335Z,26.15
2023-03-28T09:19:47.697Z,26.22
2023-03-28T09:20:43.090Z,26.28
2023-03-28T09:21:40.420Z,26.33
2023-03-28T09:22:40.424Z,26.39
2023-03-28T09:23:40.443Z,26.43
2023-03-28T09:24:40.384Z,26.49
2023-03-28T09:25:40.474Z,26.50
2023-03-28T09:32:40.409Z,26.69
2023-03-28T09:35:40.404Z,26.77
2023-03-28T09:36:48.247Z,26.79
2023-03-28T09:37:41.355Z,26.79
2023-03-28T09:42:40.337Z,26.87
2023-03-28T09:44:52.935Z,26.45
2023-03-28T09:45:41.316Z,26.11
2023-03-28T09:49:40.327Z,26.01
2023-03-28T09:50:40.356Z,26.08
2023-03-28T09:51:40.377Z,26.15
2023-03-28T09:53:40.391Z,26.42
2023-03-28T09:54:40.361Z,26.50
2023-03-28T09:55:40.362Z,26.62
2023-03-28T09:59:40.350Z,26.95
2023-03-28T10:00:40.352Z,27.05
2023-03-28T10:01:40.481Z,27.11
2023-03-28T10:02:40.541Z,27.18
2023-03-28T10:03:40.519Z,27.25
2023-03-28T10:04:40.655Z,27.31
2023-03-28T10:05:40.636Z,27.38
2023-03-28T10:06:40.602Z,27.41
2023-03-28T10:07:40.695Z,27.45
2023-03-28T10:08:41.037Z,27.51
2023-03-28T10:09:40.757Z,27.54
2023-03-28T10:10:40.801Z,27.58
2023-03-28T10:11:40.803Z,27.61
2023-03-28T10:12:40.845Z,27.64
2023-03-28T10:13:41.127Z,27.65
2023-03-28T10:15:41.030Z,27.76
2023-03-28T10:16:40.972Z,27.73
2023-03-28T10:17:41.043Z,27.79
2023-03-28T10:18:41.007Z,27.79
2023-03-28T10:19:41.041Z,27.84
2023-03-28T10:20:41.071Z,27.86
2023-03-28T10:21:41.100Z,27.89
2023-03-28T10:22:41.190Z,27.89
2023-03-28T10:23:41.541Z,27.95
2023-03-28T10:29:41.300Z,27.76
2023-03-28T10:31:41.358Z,27.66
2023-03-28T10:32:41.453Z,27.61
2023-03-28T10:33:41.445Z,27.58
2023-03-28T10:34:41.452Z,27.51
2023-03-28T10:35:41.577Z,27.45
2023-03-28T10:36:41.493Z,27.42
2023-03-28T10:37:41.500Z,27.42
2023-03-28T10:38:41.591Z,27.41
2023-03-28T10:39:41.519Z,27.40
2023-03-28T10:44:41.622Z,27.48
2023-03-28T10:45:41.664Z,27.54
2023-03-28T10:46:41.698Z,27.56
2023-03-28T10:47:41.834Z,27.62
2023-03-28T10:48:41.734Z,27.68
2023-03-28T10:49:41.807Z,27.69
2023-03-28T10:50:42.557Z,27.68
2023-03-28T10:51:41.879Z,27.69
2023-03-28T10:52:41.877Z,27.71
2023-03-28T10:53:41.955Z,27.69
2023-03-28T10:54:41.996Z,27.68
2023-03-28T10:55:42.008Z,27.65
2023-03-28T11:00:42.091Z,27.49
2023-03-28T11:01:42.098Z,27.54
2023-03-28T11:05:42.233Z,27.72
2023-03-28T11:06:42.290Z,27.76
2023-03-28T11:07:42.315Z,27.75
2023-03-28T11:08:42.581Z,27.81
2023-03-28T11:15:42.442Z,27.93
2023-03-28T11:16:42.548Z,27.91
2023-03-28T11:17:42.482Z,27.93
2023-03-28T11:18:42.606Z,27.95
2023-03-28T11:22:47.709Z,28.03
2023-03-28T11:25:42.576Z,28.05
2023-03-28T11:30:42.456Z,28.05
2023-03-28T11:33:42.510Z,28.03
2023-03-28T11:34:42.916Z,27.97
2023-03-28T11:35:42.415Z,27.96
2023-03-28T11:40:42.326Z,27.89
2023-03-28T11:41:42.353Z,27.88
2023-03-28T11:42:42.415Z,27.91
2023-03-28T11:43:42.434Z,27.89
2023-03-28T11:44:42.446Z,27.92
2023-03-28T11:45:51.943Z,27.93
2023-03-28T11:46:43.848Z,27.93
2023-03-28T11:47:42.512Z,27.97
2023-03-28T11:53:42.366Z,28.02
2023-03-28T11:54:42.436Z,28.02
2023-03-28T11:55:42.449Z,28.03
2023-03-28T11:56:42.516Z,28.03
2023-03-28T11:57:42.460Z,28.03
2023-03-28T11:58:42.501Z,28.03
2023-03-28T11:59:42.550Z,28.03
2023-03-28T12:00:42.717Z,28.03
2023-03-28T12:01:42.620Z,28.05
2023-03-28T12:02:42.746Z,28.02
2023-03-28T12:03:42.785Z,28.03
2023-03-28T12:04:42.734Z,28.03
2023-03-28T12:05:42.721Z,28.03
2023-03-28T12:08:42.799Z,28.02
2023-03-28T12:09:42.853Z,27.99
2023-03-28T12:10:42.890Z,28.00
2023-03-28T12:11:42.899Z,28.02
2023-03-28T12:12:42.927Z,28.00
2023-03-28T12:13:46.314Z,27.96
2023-03-28T12:14:43.945Z,27.92
2023-03-28T12:15:42.933Z,27.82
2023-03-28T12:18:42.896Z,27.58
2023-03-28T12:24:42.830Z,27.00
2023-03-28T12:25:42.844Z,26.95
2023-03-28T12:26:42.826Z,26.95
2023-03-28T12:33:42.867Z,27.21
2023-03-28T12:34:42.913Z,27.28
2023-03-28T12:35:42.975Z,27.30
2023-03-28T12:36:42.944Z,27.34
2023-03-28T12:37:42.999Z,27.37
2023-03-28T12:38:43.022Z,27.41
2023-03-28T12:39:43.074Z,27.46
2023-03-28T12:40:43.124Z,27.48
2023-03-28T12:41:43.169Z,27.48
2023-03-28T12:42:43.176Z,27.51
2023-03-28T12:43:43.184Z,27.51
2023-03-28T12:44:43.244Z,27.55
2023-03-28T12:45:43.325Z,27.55
2023-03-28T12:46:43.318Z,27.59
2023-03-28T12:47:43.362Z,27.59
2023-03-28T12:48:43.384Z,27.62
2023-03-28T12:49:43.431Z,27.64
2023-03-28T12:50:43.494Z,27.65
2023-03-28T12:51:43.548Z,27.65
2023-03-28T12:52:43.557Z,27.65
2023-03-28T12:53:43.560Z,27.66
2023-03-28T12:54:43.621Z,27.66
2023-03-28T12:55:43.685Z,27.69
2023-03-28T12:56:43.741Z,27.71
2023-03-28T12:57:43.826Z,27.71
2023-03-28T12:58:43.794Z,27.71
2023-03-28T12:59:43.843Z,27.72
2023-03-28T13:00:43.868Z,27.73
2023-03-28T13:01:43.949Z,27.72
2023-03-28T13:02:43.969Z,27.73
2023-03-28T13:03:43.934Z,27.73
2023-03-28T13:04:44.044Z,27.72
2023-03-28T13:05:44.052Z,27.71
2023-03-28T13:06:44.071Z,27.71
2023-03-28T13:07:44.128Z,27.72
2023-03-28T13:08:44.154Z,27.71
2023-03-28T13:09:44.186Z,27.72
2023-03-28T13:10:44.212Z,27.73
2023-03-28T13:11:44.222Z,27.71
2023-03-28T13:12:44.308Z,27.71
2023-03-28T13:13:44.327Z,27.71
2023-03-28T13:14:44.392Z,27.69
2023-03-28T13:15:44.480Z,27.69
2023-03-28T13:16:44.454Z,27.69
2023-03-28T13:17:44.561Z,27.69
2023-03-28T13:18:44.537Z,27.69
2023-03-28T13:19:44.563Z,27.69
2023-03-28T13:20:44.584Z,27.69
2023-03-28T13:21:44.645Z,27.62
2023-03-28T13:22:44.674Z,27.55
2023-03-28T13:23:44.680Z,27.48
2023-03-28T13:24:44.710Z,27.42
2023-03-28T13:25:44.805Z,27.41
2023-03-28T13:26:44.766Z,27.38
2023-03-28T13:27:44.782Z,27.38
2023-03-28T13:28:44.815Z,27.35
2023-03-28T13:29:44.834Z,27.34
2023-03-28T13:30:44.846Z,27.33
2023-03-28T13:31:44.895Z,27.33
2023-03-28T13:32:44.919Z,27.34
2023-03-28T13:33:45.036Z,27.31
2023-03-28T13:34:44.929Z,27.34
2023-03-28T13:35:44.972Z,27.35
2023-03-28T13:36:44.936Z,27.38
2023-03-28T13:37:44.959Z,27.38
2023-03-28T13:38:44.987Z,27.40
2023-03-28T13:39:44.999Z,27.38
2023-03-28T13:40:45.035Z,27.40
2023-03-28T13:41:45.070Z,27.37
2023-03-28T13:48:45.313Z,27.37
2023-03-28T13:49:45.343Z,27.35
2023-03-28T13:50:45.410Z,27.37
2023-03-28T13:51:45.426Z,27.38
2023-03-28T13:52:45.448Z,27.35
2023-03-28T13:53:48.330Z,27.37
2023-03-28T13:55:45.478Z,27.37
2023-03-28T13:57:45.435Z,27.37
2023-03-28T13:58:45.471Z,27.37
2023-03-28T14:03:47.128Z,27.33
2023-03-28T14:04:45.396Z,27.31
2023-03-28T14:06:45.346Z,27.30
2023-03-28T14:13:45.265Z,27.25
2023-03-28T14:16:45.351Z,27.14
2023-03-28T14:22:53.068Z,26.47
2023-03-28T14:23:46.288Z,26.38
2023-03-28T14:30:45.343Z,26.26
2023-03-28T14:31:45.378Z,26.25
2023-03-28T14:32:56.461Z,26.33
2023-03-28T14:33:47.448Z,26.33
2023-03-28T14:34:45.453Z,26.39
2023-03-28T14:35:45.612Z,26.40
2023-03-28T14:36:45.455Z,26.46
2023-03-28T14:37:45.510Z,26.49
2023-03-28T14:38:45.498Z,26.50
2023-03-28T14:39:45.556Z,26.56
2023-03-28T14:40:45.617Z,26.59
2023-03-28T14:41:45.635Z,26.63
2023-03-28T14:42:45.675Z,26.64
2023-03-28T14:43:45.701Z,26.67
2023-03-28T14:44:45.717Z,26.67
2023-03-28T14:45:45.789Z,26.69
2023-03-28T14:48:45.842Z,26.74
2023-03-28T14:49:45.914Z,26.74
2023-03-28T14:50:45.908Z,26.77
2023-03-28T14:51:45.936Z,26.77
2023-03-28T14:52:45.917Z,26.79
2023-03-28T14:53:45.988Z,26.82
2023-03-28T14:54:45.996Z,26.79
2023-03-28T14:55:46.012Z,26.82
2023-03-28T14:56:46.093Z,26.83
2023-03-28T14:57:46.090Z,26.83
2023-03-28T15:01:46.196Z,26.86
2023-03-28T15:03:46.334Z,26.86
2023-03-28T15:04:46.215Z,26.87
2023-03-28T15:05:46.264Z,26.84
2023-03-28T15:06:46.251Z,26.83
2023-03-28T15:09:14.975Z,26.47
2023-03-28T15:10:40.271Z,26.33
2023-03-28T15:11:40.246Z,26.31
2023-03-28T15:12:40.210Z,26.19
2023-03-28T15:13:40.188Z,26.12
2023-03-28T15:14:40.189Z,26.04
2023-03-28T15:15:40.222Z,26.01
2023-03-28T15:16:40.129Z,26.01
2023-03-28T15:17:40.281Z,25.99
2023-03-28T15:18:41.798Z,26.02
2023-03-28T15:19:40.068Z,26.05
2023-03-28T15:20:40.044Z,26.08
2023-03-28T15:21:40.002Z,26.06
2023-03-28T15:22:39.957Z,26.09
2023-03-28T15:23:39.975Z,26.14
2023-03-28T15:24:39.940Z,26.18
2023-03-28T15:25:39.871Z,26.22
2023-03-28T15:26:39.850Z,26.23
2023-03-28T15:27:39.809Z,26.28
2023-03-28T15:28:39.801Z,26.32
2023-03-28T15:29:39.773Z,26.33
2023-03-28T15:30:39.728Z,26.35
2023-03-28T15:31:39.730Z,26.40
2023-03-28T15:32:39.699Z,26.40
2023-03-28T15:33:39.658Z,26.43
2023-03-28T15:34:39.597Z,26.46
2023-03-28T15:35:39.629Z,26.43
2023-03-28T15:36:39.527Z,26.47
2023-03-28T15:37:39.489Z,26.49
2023-03-28T15:38:39.465Z,26.49
2023-03-28T15:39:39.396Z,26.47
2023-03-28T15:40:39.395Z,26.52
2023-03-28T15:41:39.356Z,26.56
2023-03-28T15:42:39.290Z,26.57
2023-03-28T15:43:39.280Z,26.54
2023-03-28T15:44:39.245Z,26.57
2023-03-28T15:45:39.241Z,26.59
2023-03-28T15:46:39.217Z,26.57
2023-03-28T15:47:39.247Z,26.60
2023-03-28T15:48:39.121Z,26.60
2023-03-28T15:49:39.120Z,26.59
2023-03-28T15:50:39.088Z,26.60
2023-03-28T15:51:39.076Z,26.62
2023-03-28T15:52:39.039Z,26.60
2023-03-28T15:53:38.971Z,26.62
2023-03-28T15:54:38.957Z,26.63
2023-03-28T15:55:38.973Z,26.63
2023-03-28T15:56:38.943Z,26.62
2023-03-28T15:57:38.895Z,26.62
2023-03-28T15:58:38.857Z,26.62
2023-03-28T15:59:38.821Z,26.60
2023-03-28T16:00:38.796Z,26.60
2023-03-28T16:01:38.804Z,26.60
2023-03-28T16:02:38.790Z,26.62
2023-03-28T16:03:38.898Z,26.59
2023-03-28T16:04:38.768Z,26.62
2023-03-28T16:05:38.760Z,26.62
2023-03-28T16:06:38.949Z,26.60
2023-03-28T16:07:38.756Z,26.59
2023-03-28T16:08:38.763Z,26.60
2023-03-28T16:09:38.736Z,26.56
2023-03-28T16:10:38.809Z,26.59
2023-03-28T16:11:38.763Z,26.56
2023-03-28T16:12:39.042Z,26.56
2023-03-28T16:13:38.807Z,26.56
2023-03-28T16:14:38.803Z,26.54
2023-03-28T16:15:38.832Z,26.53
2023-03-28T16:16:38.894Z,26.56
2023-03-28T16:17:38.844Z,26.52
2023-03-28T16:18:38.825Z,26.54
2023-03-28T16:19:38.877Z,26.52
2023-03-28T16:20:38.866Z,26.52
2023-03-28T16:21:38.890Z,26.52
2023-03-28T16:22:38.870Z,26.50
2023-03-28T16:23:38.900Z,26.50
2023-03-28T16:24:38.896Z,26.49
2023-03-28T16:25:38.913Z,26.50
2023-03-28T16:26:38.927Z,26.50
2023-03-28T16:27:38.980Z,26.53
2023-03-28T16:28:38.952Z,26.52
2023-03-28T16:29:39.002Z,26.53
2023-03-28T16:30:38.942Z,26.52
2023-03-28T16:31:39.037Z,26.52
2023-03-28T16:32:39.009Z,26.50
2023-03-28T16:33:39.048Z,26.52
2023-03-28T16:34:38.994Z,26.52
2023-03-28T16:35:39.091Z,26.50
2023-03-28T16:36:39.063Z,26.50
2023-03-28T16:37:39.078Z,26.52
2023-03-28T16:38:39.049Z,26.50
2023-03-28T16:39:39.099Z,26.52
2023-03-28T16:40:39.088Z,26.49
2023-03-28T16:41:39.099Z,26.50
2023-03-28T16:42:39.153Z,26.47
2023-03-28T16:43:39.156Z,26.47
2023-03-28T16:44:39.155Z,26.53
2023-03-28T16:45:39.173Z,26.50
2023-03-28T16:46:39.270Z,26.47
2023-03-28T16:47:39.226Z,26.49
2023-03-28T16:48:39.233Z,26.47
2023-03-28T16:49:39.241Z,26.46
2023-03-28T16:50:39.234Z,26.49
2023-03-28T16:51:39.228Z,26.46
2023-03-28T16:52:39.262Z,26.47
2023-03-28T16:53:39.270Z,26.50
2023-03-28T16:54:39.238Z,26.45
2023-03-28T16:55:39.251Z,26.46
2023-03-28T16:56:39.316Z,26.46
2023-03-28T16:57:39.277Z,26.45
2023-03-28T16:58:39.315Z,26.46
2023-03-28T16:59:39.309Z,26.46
2023-03-28T17:00:39.336Z,26.43
2023-03-28T17:01:39.441Z,26.40
2023-03-28T17:02:39.485Z,26.45
2023-03-28T17:03:39.446Z,26.43
2023-03-28T17:04:39.418Z,26.40
2023-03-28T17:05:39.407Z,26.40
2023-03-28T17:06:39.412Z,26.40
2023-03-28T17:07:39.451Z,26.43
2023-03-28T17:08:39.437Z,26.42
2023-03-28T17:09:39.434Z,26.42
2023-03-28T17:10:39.467Z,26.40
2023-03-28T17:11:39.464Z,26.40
2023-03-28T17:12:39.488Z,26.39
2023-03-28T17:13:39.478Z,26.40
2023-03-28T17:14:39.527Z,26.38
2023-03-28T17:15:39.506Z,26.39
2023-03-28T17:16:39.593Z,26.38
2023-03-28T17:17:39.563Z,26.36
2023-03-28T17:18:39.561Z,26.38
2023-03-28T17:19:39.600Z,26.38
2023-03-28T17:20:39.589Z,26.35
2023-03-28T17:21:39.610Z,26.35
2023-03-28T17:22:39.620Z,26.36
2023-03-28T17:23:39.608Z,26.38
2023-03-28T17:24:39.621Z,26.33
2023-03-28T17:25:53.850Z,26.35
2023-03-28T17:26:40.589Z,26.38
2023-03-28T17:27:39.583Z,26.35
2023-03-28T17:28:39.501Z,26.35
2023-03-28T17:29:39.503Z,26.35
2023-03-28T17:30:39.450Z,26.32
2023-03-28T17:31:39.388Z,26.33
2023-03-28T17:32:39.386Z,26.35
2023-03-28T17:33:39.299Z,26.33
2023-03-28T17:34:39.275Z,26.35
2023-03-28T17:35:39.260Z,26.32